Melbourne, FL

1:29 AM EDT on September 04, 2015 (GMT -0400)
Timber Ridge | | Change Station
CLOSE
Current Station
Personal Weather Station
Location: West Melbourne, FL
Elevation: 33 ft
Nearby Weather Stations

Elev 33 ft 28.07 °N, 80.65 °W | Updated 8 minutes ago

Scattered Clouds
Scattered Clouds
77.7 °F
Feels Like 80 °F
N
0.0
Wind Variable Wind from SSW
Gusts 0.0 mph

Today
High -- | Low -- °F
--% Chance of Precip.
Yesterday
High -- | Low -- °F
Precip. -- in
7:02 AM 7:40 PM
Waning Gibbous, 63% visible
Pressure 29.93 in
Visibility 10.0 miles
Clouds Scattered Clouds 7000 ft
Heat Index 80 °F
Dew Point 74 °F
Humidity 90%
Rainfall 0.03 in
Snow Depth Not available.
UV 0 out of 12
Pollen 7.00 out of 12
Air Quality Not available.
Flu Activity Not available.
METAR KMLB 040453Z AUTO 00000KT 10SM SCT070 26/24 A2993 RMK AO2 RAE10 TSE10 SLP134 P0001 T02610244 403390250
Pressure 29.93 in
Visibility 10.0 miles
Clouds Scattered Clouds 7000 ft
Heat Index 80 °F
Dew Point 74 °F
Humidity 90%
Rainfall 0.03 in
Snow Depth Not available.
UV 0 out of 12
Pollen 7.00 out of 12
Air Quality Not available.
Flu Activity Not available.
METAR KMLB 040453Z AUTO 00000KT 10SM SCT070 26/24 A2993 RMK AO2 RAE10 TSE10 SLP134 P0001 T02610244 403390250

10-Day Weather Forecast

×

Almanac

Astronomy

Sep. 04, 2015 Rise Set
Actual Time
Civil Twilight
Nautical Twilight
Astronomical Twilight
Moon
Length of Visible Light
Length of Day
Tomorrow will be .
, % of the Moon is Illuminated

Today's Extremes

State Highs State Lows

Community

WunderPhotos

Upload Photos

1,852,129 photos uploaded!

WunderBlogs® & News

Nearby

Air Quality

  Air Quality AQ Index Pollutant
Not available.

Snow Depth

Station Depth Elevation

Earthquake Activity

City Distance Mag. Time & Date
Minimum magnitude displayed is 2.5.

Coastal Water Temperatures

Place Temperature

Stations

Nearby Weather Stations

Station Location Temp. Windchill Dew Point Humidity Wind Precip. Elev Updated Type